createdAt,value
2023-02-09T00:01:00.717Z,103259.73
2023-02-09T00:04:40.988Z,103253.48
2023-02-09T00:07:58.771Z,103255.21
2023-02-09T00:11:32.688Z,103260.07
2023-02-09T00:15:06.222Z,103271.23
2023-02-09T00:18:47.912Z,103271.64
2023-02-09T00:22:36.799Z,103272.14
2023-02-09T00:26:09.747Z,103274.67
2023-02-09T00:29:58.728Z,103274.09
2023-02-09T00:33:47.812Z,103276.30
2023-02-09T00:37:37.120Z,103276.36
2023-02-09T00:41:24.928Z,103269.88
2023-02-09T00:45:15.160Z,103257.61
2023-02-09T00:48:57.079Z,103245.56
2023-02-09T00:52:46.237Z,103239.33
2023-02-09T00:56:35.483Z,103234.37
2023-02-09T01:00:24.221Z,103234.33
2023-02-09T01:03:55.874Z,103224.10
2023-02-09T01:07:44.767Z,103219.96
2023-02-09T01:11:22.359Z,103219.90
2023-02-09T01:15:11.081Z,103215.61
2023-02-09T01:18:26.697Z,103215.09
2023-02-09T01:22:15.662Z,103211.98
2023-02-09T01:25:47.151Z,103200.62
2023-02-09T01:29:35.886Z,103194.91
2023-02-09T01:33:07.873Z,103189.34
2023-02-09T01:37:00.477Z,103183.90
2023-02-09T01:40:53.367Z,103187.45
2023-02-09T01:44:42.116Z,103177.91
2023-02-09T01:48:26.395Z,103166.91
2023-02-09T01:52:08.601Z,103161.08
2023-02-09T01:55:34.749Z,103154.45
2023-02-09T01:59:22.452Z,103150.14
2023-02-09T02:03:04.967Z,103146.04
2023-02-09T02:06:41.162Z,103134.63
2023-02-09T02:10:12.712Z,103127.66
2023-02-09T02:13:53.988Z,103116.36
2023-02-09T02:17:29.184Z,103107.02
2023-02-09T02:21:38.888Z,103101.20
2023-02-09T02:25:21.307Z,103093.02
2023-02-09T02:29:19.185Z,103091.98
2023-02-09T02:33:03.752Z,103081.63
2023-02-09T02:37:06.022Z,103083.40
2023-02-09T02:40:33.114Z,103078.92
2023-02-09T02:44:10.817Z,103080.49
2023-02-09T02:47:45.864Z,103078.29
2023-02-09T02:51:31.916Z,103072.59
2023-02-09T02:55:14.414Z,103069.77
2023-02-09T02:58:43.080Z,103071.53
2023-02-09T03:02:11.788Z,103061.58
2023-02-09T03:05:44.750Z,103049.70
2023-02-09T03:09:47.370Z,103039.39
2023-02-09T03:13:22.821Z,103032.37
2023-02-09T03:17:03.162Z,103030.98
2023-02-09T03:20:51.873Z,103029.02
2023-02-09T03:24:23.573Z,103030.15
2023-02-09T03:27:47.148Z,103035.05
2023-02-09T03:31:20.043Z,103032.26
2023-02-09T03:35:01.587Z,103030.38
2023-02-09T03:38:50.305Z,103033.46
2023-02-09T03:42:29.238Z,103036.02
2023-02-09T03:45:55.501Z,103035.98
2023-02-09T03:49:36.926Z,103039.92
2023-02-09T03:53:20.099Z,103045.11
2023-02-09T03:57:09.939Z,103040.27
2023-02-09T04:01:02.636Z,103037.33
2023-02-09T04:04:34.294Z,103036.58
2023-02-09T04:08:09.628Z,103032.76
2023-02-09T04:11:44.060Z,103034.23
2023-02-09T04:15:33.610Z,103034.31
2023-02-09T04:19:22.789Z,103025.07
2023-02-09T04:22:43.090Z,103026.54
2023-02-09T04:25:56.272Z,103025.33
2023-02-09T04:29:35.249Z,103024.02
2023-02-09T04:32:40.308Z,103025.42
2023-02-09T04:36:29.058Z,103023.84
2023-02-09T04:40:25.955Z,103022.07
2023-02-09T04:44:14.673Z,103015.40
2023-02-09T04:47:54.712Z,103012.52
2023-02-09T04:51:32.200Z,103015.05
2023-02-09T04:55:15.014Z,103020.52
2023-02-09T04:59:02.625Z,103020.08
2023-02-09T05:02:26.840Z,103015.17
2023-02-09T05:05:39.007Z,103009.39
2023-02-09T05:09:28.258Z,103005.16
2023-02-09T05:13:16.961Z,102996.29
2023-02-09T05:17:01.027Z,102997.07
2023-02-09T05:20:57.210Z,102992.21
2023-02-09T05:24:36.711Z,102992.11
2023-02-09T05:28:18.048Z,102990.96
2023-02-09T05:32:10.714Z,102998.35
2023-02-09T05:35:52.175Z,102997.24
2023-02-09T05:39:41.818Z,102990.73
2023-02-09T05:43:03.878Z,102996.55
2023-02-09T05:46:45.844Z,102993.59
2023-02-09T05:50:27.559Z,102988.73
2023-02-09T05:53:59.827Z,102983.39
2023-02-09T05:57:41.338Z,102979.45
2023-02-09T06:01:39.669Z,102974.82
2023-02-09T06:05:28.752Z,102974.48
2023-02-09T06:08:58.686Z,102966.27
2023-02-09T06:12:47.814Z,102962.98
2023-02-09T06:16:36.754Z,102967.42
2023-02-09T06:19:59.169Z,102969.81
2023-02-09T06:23:28.288Z,102971.34
2023-02-09T06:27:15.974Z,102968.88
2023-02-09T06:30:57.528Z,102975.33
2023-02-09T06:34:31.486Z,102971.02
2023-02-09T06:38:36.510Z,102973.36
2023-02-09T06:42:18.032Z,102970.48
2023-02-09T06:46:06.398Z,102969.09
2023-02-09T06:49:57.326Z,102967.02
2023-02-09T06:53:45.100Z,102968.48
2023-02-09T06:57:23.971Z,102966.45
2023-02-09T07:01:11.564Z,102973.20
2023-02-09T07:04:59.205Z,102969.30
2023-02-09T07:08:48.360Z,102966.90
2023-02-09T07:12:40.539Z,102967.23
2023-02-09T07:16:35.280Z,102967.83
2023-02-09T07:19:59.044Z,102970.14
2023-02-09T07:23:30.948Z,102970.19
2023-02-09T07:27:12.385Z,102968.41
2023-02-09T07:30:46.964Z,102963.00
2023-02-09T07:34:34.836Z,102960.17
2023-02-09T07:38:17.152Z,102960.89
2023-02-09T07:41:53.442Z,102960.36
2023-02-09T07:45:25.262Z,102963.59
2023-02-09T07:49:01.522Z,102964.76
2023-02-09T07:52:50.722Z,102959.38
2023-02-09T07:56:40.704Z,102953.23
2023-02-09T08:00:29.511Z,102952.77
2023-02-09T08:04:11.495Z,102956.64
2023-02-09T08:08:00.721Z,102948.00
2023-02-09T08:11:53.962Z,102946.44
2023-02-09T08:15:24.880Z,102949.48
2023-02-09T08:19:18.476Z,102943.82
2023-02-09T08:23:00.120Z,102941.26
2023-02-09T08:26:17.560Z,102939.59
2023-02-09T08:29:37.245Z,102930.64
2023-02-09T08:33:18.760Z,102926.23
2023-02-09T08:37:07.627Z,102923.08
2023-02-09T08:40:44.137Z,102921.80
2023-02-09T08:44:06.303Z,102920.80
2023-02-09T08:46:39.926Z,102920.05
2023-02-09T08:49:40.084Z,102919.36
2023-02-09T08:52:23.663Z,102918.50
2023-02-09T08:55:35.836Z,102913.89
2023-02-09T08:59:07.190Z,102908.60
2023-02-09T09:02:21.845Z,102901.84
2023-02-09T09:06:00.792Z,102900.11
2023-02-09T09:09:32.690Z,102900.27
2023-02-09T09:12:50.561Z,102896.94
2023-02-09T09:16:32.290Z,102895.27
2023-02-09T09:19:55.731Z,102890.88
2023-02-09T09:23:17.724Z,102887.34
2023-02-09T09:26:31.733Z,102890.98
2023-02-09T09:29:56.384Z,102893.80
2023-02-09T09:33:14.976Z,102890.98
2023-02-09T09:37:11.387Z,102887.48
2023-02-09T09:41:03.726Z,102887.21
2023-02-09T09:45:05.865Z,102879.48
2023-02-09T09:49:20.650Z,102872.01
2023-02-09T09:53:14.124Z,102870.40
2023-02-09T09:57:17.592Z,102860.64
2023-02-09T10:01:11.023Z,102852.45
2023-02-09T10:05:00.359Z,102848.38
2023-02-09T10:09:38.053Z,102839.25
2023-02-09T10:13:50.046Z,102830.02
2023-02-09T10:18:19.183Z,102820.27
2023-02-09T10:22:51.252Z,102811.71
2023-02-09T10:26:42.947Z,102804.36
2023-02-09T10:31:17.740Z,102790.55
2023-02-09T10:35:32.806Z,102785.00
2023-02-09T10:39:14.746Z,102776.33
2023-02-09T10:43:35.353Z,102770.86
2023-02-09T10:47:24.368Z,102757.84
2023-02-09T10:51:36.397Z,102750.40
2023-02-09T10:56:05.344Z,102740.70
2023-02-09T11:00:37.060Z,102730.72
2023-02-09T11:04:57.590Z,102718.69
2023-02-09T11:09:02.020Z,102712.26
2023-02-09T11:12:50.971Z,102704.30
2023-02-09T11:16:46.418Z,102703.66
2023-02-09T11:21:27.137Z,102694.69
2023-02-09T11:25:34.142Z,102688.37
2023-02-09T11:29:55.218Z,102683.02
2023-02-09T11:34:36.540Z,102678.60
2023-02-09T11:38:45.602Z,102666.96
2023-02-09T11:42:35.790Z,102664.28
2023-02-09T11:46:27.651Z,102657.83
2023-02-09T11:50:19.359Z,102650.13
2023-02-09T11:54:40.357Z,102645.22
2023-02-09T11:58:56.367Z,102645.46
2023-02-09T12:02:45.348Z,102640.55
2023-02-09T12:07:14.488Z,102635.33
2023-02-09T12:11:32.405Z,102634.06
2023-02-09T12:15:47.446Z,102627.30
2023-02-09T12:20:16.514Z,102618.56
2023-02-09T12:24:40.702Z,102614.43
2023-02-09T12:29:04.692Z,102611.48
2023-02-09T12:33:23.590Z,102610.23
2023-02-09T12:37:35.427Z,102602.95
2023-02-09T12:41:44.306Z,102598.31
2023-02-09T12:45:51.611Z,102590.45
2023-02-09T12:50:00.556Z,102582.27
2023-02-09T12:53:54.936Z,102579.20
2023-02-09T12:57:56.287Z,102572.67
2023-02-09T13:02:06.556Z,102577.42
2023-02-09T13:06:15.484Z,102578.33
2023-02-09T13:10:15.027Z,102574.45
2023-02-09T13:14:13.236Z,102570.04
2023-02-09T13:18:04.192Z,102561.83
2023-02-09T13:22:14.561Z,102554.62
2023-02-09T13:26:29.541Z,102542.26
2023-02-09T13:30:21.265Z,102539.55
2023-02-09T13:34:32.552Z,102532.13
2023-02-09T13:39:01.362Z,102522.42
2023-02-09T13:43:12.944Z,102521.57
2023-02-09T13:47:41.866Z,102519.19
2023-02-09T13:52:17.078Z,102522.26
2023-02-09T13:56:48.193Z,102520.89
2023-02-09T14:01:03.305Z,102513.77
2023-02-09T14:05:32.166Z,102514.63
2023-02-09T14:10:03.908Z,102512.79
2023-02-09T14:13:58.010Z,102503.38
2023-02-09T14:18:26.909Z,102494.46
2023-02-09T14:22:28.399Z,102481.66
2023-02-09T14:26:43.485Z,102478.04
2023-02-09T14:31:09.408Z,102466.98
2023-02-09T14:35:24.816Z,102464.77
2023-02-09T14:39:31.717Z,102463.73
2023-02-09T14:43:43.386Z,102462.86
2023-02-09T14:47:49.032Z,102452.56
2023-02-09T14:51:40.846Z,102456.09
2023-02-09T14:56:09.998Z,102456.11
2023-02-09T14:59:59.212Z,102450.80
2023-02-09T15:04:08.343Z,102449.87
2023-02-09T15:08:38.601Z,102450.94
2023-02-09T15:12:26.531Z,102452.58
2023-02-09T15:16:55.720Z,102451.66
2023-02-09T15:21:25.095Z,102448.65
2023-02-09T15:25:53.981Z,102443.52
2023-02-09T15:29:42.639Z,102447.52
2023-02-09T15:33:15.187Z,102448.23
2023-02-09T15:37:10.377Z,102444.11
2023-02-09T15:41:26.022Z,102436.45
2023-02-09T15:45:13.363Z,102428.77
2023-02-09T15:49:02.542Z,102426.17
2023-02-09T15:53:31.452Z,102425.02
2023-02-09T15:57:20.376Z,102422.77
2023-02-09T16:01:29.602Z,102417.70
2023-02-09T16:09:04.073Z,102417.69
2023-02-09T16:12:43.215Z,102420.95
2023-02-09T16:15:03.310Z,102416.65
2023-02-09T16:17:03.553Z,102414.16
2023-02-09T16:21:32.925Z,102412.44
2023-02-09T16:25:29.418Z,102414.94
2023-02-09T16:29:39.012Z,102411.05
2023-02-09T16:33:28.695Z,102412.33
2023-02-09T16:38:09.370Z,102407.14
2023-02-09T16:42:39.886Z,102405.83
2023-02-09T16:46:28.846Z,102399.27
2023-02-09T16:51:10.777Z,102399.48
2023-02-09T16:55:11.442Z,102401.23
2023-02-09T17:08:53.948Z,102385.24
2023-02-09T17:19:48.669Z,102367.45
2023-02-09T17:24:08.912Z,102365.66
2023-02-09T17:28:03.729Z,102367.99
2023-02-09T17:32:32.614Z,102356.72
2023-02-09T17:36:42.288Z,102347.15
2023-02-09T17:50:13.079Z,102339.80
2023-02-09T17:54:38.255Z,102334.52
2023-02-09T18:00:05.778Z,102330.71
2023-02-09T18:02:11.368Z,102331.61
2023-02-09T18:05:57.414Z,102322.02
2023-02-09T18:10:06.430Z,102312.64
2023-02-09T18:13:51.290Z,102309.23
2023-02-09T18:18:23.190Z,102299.67
2023-02-09T18:22:38.073Z,102291.69
2023-02-09T18:26:29.945Z,102288.63
2023-02-09T18:30:45.315Z,102287.46
2023-02-09T18:34:55.270Z,102286.69
2023-02-09T18:38:45.203Z,102286.25
2023-02-09T18:42:47.157Z,102288.23
2023-02-09T18:46:56.636Z,102282.25
2023-02-09T18:51:10.856Z,102277.54
2023-02-09T18:55:21.031Z,102271.55
2023-02-09T18:59:30.354Z,102266.63
2023-02-09T19:03:59.187Z,102260.27
2023-02-09T19:07:48.738Z,102257.10
2023-02-09T19:11:58.283Z,102257.71
2023-02-09T19:15:44.010Z,102246.58
2023-02-09T19:19:49.893Z,102249.52
2023-02-09T19:23:57.078Z,102245.44
2023-02-09T19:31:55.525Z,102252.01
2023-02-09T19:33:47.200Z,102248.93
2023-02-09T19:35:57.100Z,102251.41
2023-02-09T19:39:57.996Z,102248.72
2023-02-09T19:44:16.048Z,102256.17
2023-02-09T19:48:09.052Z,102245.02
2023-02-09T19:52:38.031Z,102243.27
2023-02-09T19:56:54.448Z,102237.58
2023-02-09T20:00:56.213Z,102217.55
2023-02-09T20:04:47.361Z,102219.13
2023-02-09T20:08:59.433Z,102219.95
2023-02-09T20:21:52.289Z,102227.02
2023-02-09T20:26:21.159Z,102228.61
2023-02-09T20:30:10.235Z,102225.90
2023-02-09T20:34:08.905Z,102215.89
2023-02-09T20:38:32.924Z,102216.27
2023-02-09T20:42:40.966Z,102216.46
2023-02-09T20:47:01.726Z,102208.70
2023-02-09T20:50:50.667Z,102217.98
2023-02-09T20:54:59.515Z,102221.35
2023-02-09T20:59:08.485Z,102231.95
2023-02-09T21:02:57.713Z,102237.48
2023-02-09T21:07:06.582Z,102229.70
2023-02-09T21:11:38.408Z,102225.42
2023-02-09T21:15:47.716Z,102217.30
2023-02-09T21:20:00.375Z,102205.04
2023-02-09T21:24:09.849Z,102192.08
2023-02-09T21:28:39.578Z,102188.92
2023-02-09T21:32:29.252Z,102179.94
2023-02-09T21:36:41.336Z,102182.30
2023-02-09T21:40:30.338Z,102180.73
2023-02-09T21:44:59.056Z,102182.94
2023-02-09T21:48:48.659Z,102177.04
2023-02-09T21:53:01.243Z,102176.85
2023-02-09T21:56:50.705Z,102182.34
2023-02-09T22:00:38.620Z,102179.74
2023-02-09T22:04:30.445Z,102176.45
2023-02-09T22:08:44.660Z,102191.13
2023-02-09T22:12:23.558Z,102187.82
2023-02-09T22:16:38.577Z,102191.55
2023-02-09T22:20:17.958Z,102190.52
2023-02-09T22:24:27.126Z,102190.27
2023-02-09T22:28:16.389Z,102184.64
2023-02-09T22:31:50.638Z,102182.09
2023-02-09T22:35:29.218Z,102176.63
2023-02-09T22:39:38.822Z,102167.52
2023-02-09T22:43:15.868Z,102172.88
2023-02-09T22:47:10.406Z,102169.80
2023-02-09T22:50:52.631Z,102171.16
2023-02-09T22:54:41.676Z,102174.83
2023-02-09T22:59:10.561Z,102171.07
2023-02-09T23:03:41.000Z,102157.89
2023-02-09T23:07:51.246Z,102156.16
2023-02-09T23:11:40.540Z,102161.75
2023-02-09T23:15:49.723Z,102160.81
2023-02-09T23:19:56.910Z,102160.56
2023-02-09T23:23:13.198Z,102152.44
2023-02-09T23:27:22.265Z,102142.49
2023-02-09T23:31:28.343Z,102142.48
2023-02-09T23:35:32.728Z,102126.06
2023-02-09T23:39:21.936Z,102127.34
2023-02-09T23:43:14.227Z,102134.61
2023-02-09T23:47:03.565Z,102131.88
2023-02-09T23:50:56.292Z,102126.71
2023-02-09T23:54:26.205Z,102120.75
2023-02-09T23:58:25.175Z,102109.95
